ADDS TAF Data INFO
IDs: Format: Raw Decoded Include METARs

Data at: 1150 UTC 11 Dec 2016

Region: TOP
KATL 111135Z 1112/1218 08007KT P6SM BKN030
  FM111400 09008KT P6SM BKN025
  FM112200 10007KT P6SM BKN015
  FM120100 10007KT P6SM VCSH BKN008
  FM120600 13006KT 4SM -RADZ BR OVC005
  FM121500 20006KT 5SM -RA BR BKN007


KBOS 111129Z 1112/1218 33004KT P6SM FEW220
  FM111400 27006KT P6SM FEW250
  FM112000 23006KT P6SM BKN110
  FM120100 20005KT P6SM VCSH OVC040
  FM120300 19005KT 5SM -SN OVC040
  FM120600 13005KT 2SM -SN OVC020
  FM120900 10008KT 2SM -SN OVC010
  FM121100 12010KT 3SM -RASN OVC008


KBWI 111135Z 1112/1218 VRB03KT P6SM OVC050
  FM111700 15006KT P6SM OVC090
  FM120500 19008KT P6SM OVC050
  FM120800 22008KT 5SM -RA SCT008 OVC010 WS020/21040KT
  FM121100 22008KT 5SM -RA SCT008 OVC010
  FM121300 22008KT 5SM -RA OVC050


KCLE 111133Z 1112/1218 16006KT 2SM -SN OVC025
  TEMPO 1113/1116 4SM -SN OVC035
  FM111700 17010G18KT 1 1/2SM -SN OVC015
  FM112300 16014G24KT 1SM -SN OVC008
  FM120400 20012KT 3SM -RASN OVC005


KCLT 111140Z 1112/1212 VRB02KT P6SM SKC
  FM111600 13005KT P6SM BKN045
  FM111900 13004KT P6SM OVC030
  FM120000 07003KT P6SM -DZ OVC015
  FM120900 20004KT 5SM -DZ BR OVC008 WS020/23040KT


KCVG 111131Z 1112/1218 14009KT P6SM OVC050
  FM111500 17012KT P6SM OVC040
  FM112000 18012G18KT P6SM -RA OVC035
  FM120300 20010KT 4SM -RA BR OVC020
  FM120800 25010KT 4SM BR OVC007
  FM121400 27008KT P6SM OVC012


KDCA 111135Z 1112/1212 VRB03KT P6SM OVC090
  FM111800 17007KT P6SM BKN100
  FM120600 20010KT 5SM -RA SCT008 OVC050
  FM120800 21009KT 5SM -RA SCT008 OVC010 WS020/22040KT
  FM121100 21012KT 5SM -RA SCT008 OVC010


KDEN 111142Z 1112/1218 07012KT P6SM VCSH SCT012 BKN090
  TEMPO 1112/1113 BKN007 BKN012
  FM111300 13007KT 5SM BR VCSH BKN015 OVC030
  TEMPO 1113/1116 3SM BR BKN011
  FM111700 16008KT P6SM SCT035 BKN100
  FM111900 30011KT P6SM FEW080 SCT120
  FM112300 05008KT P6SM SCT080 SCT120
  FM120100 15010KT P6SM FEW080 FEW120
  FM120300 19008KT P6SM FEW120 SCT200
  FM121300 23008KT P6SM FEW120 SCT200


KDFW 111121Z 1112/1218 18016KT 3SM -DZ BR OVC006
  FM111600 20020G30KT P6SM BKN015
  FM111800 20020G30KT P6SM SCT020 SCT250
  FM112200 20020KT P6SM BKN250
  FM120000 20013KT P6SM BKN250
  FM120300 35012KT P6SM BKN250
  FM120600 36012KT P6SM SCT018 BKN250
  FM120900 36009KT P6SM BKN012


KDTW 111124Z 1112/1218 17006KT 1 1/2SM -SN OVC015
  FM111400 15009KT 1SM -SN OVC010
  FM111800 16013KT 3/4SM -SN OVC008
  FM112000 16013KT 1/2SM SN OVC005
  FM120200 18008KT 3/4SM -SN OVC005
  FM120500 19010KT 3SM -SN OVC009
  FM120800 22010KT P6SM OVC009
  FM121300 23012KT P6SM OVC025


KEWR 111148Z 1112/1218 23004KT P6SM SCT120 BKN150
  FM111400 24005KT P6SM OVC100
  FM111600 21007KT P6SM OVC060
  FM112000 20007KT 5SM -SN OVC040
  FM120100 20006KT P6SM VCSH SCT045 OVC080
  FM120600 16005KT 5SM -SNRA OVC035
  FM120900 21007KT 2SM RA BR OVC008
  FM121300 24013G25KT 2SM RA BR OVC015


KFLL 111120Z 1112/1212 07016G26KT P6SM VCSH FEW025 SCT030 OVC040
  FM111400 10018G28KT P6SM VCSH SCT020 BKN040 OVC050
  FM120200 11008KT P6SM SCT035 BKN050 BKN080


KIAD 111135Z 1112/1218 VRB03KT P6SM OVC050
  FM111600 15006KT P6SM OVC100
  FM120400 18010KT P6SM BKN050
  FM120600 19010KT 5SM -RA SCT008 OVC030
  FM120800 20009KT 5SM -RA SCT008 OVC010 WS020/21040KT
  FM121100 20008KT 5SM -RA SCT008 OVC060


KIAH 111123Z 1112/1218 14008KT P6SM VCSH SCT030 BKN045
  TEMPO 1112/1115 5SM -RA BR BKN025
  FM111500 17008KT 6SM BR SCT007 BKN012
  FM111900 18010G20KT P6SM SCT009 BKN020
  FM120200 18009KT 5SM BR SCT008 BKN012
  FM120900 21005KT 5SM BR BCFG OVC008


KJFK 111148Z 1112/1218 29006KT P6SM SCT120 BKN150
  FM111400 26006KT P6SM OVC100
  FM111600 21009KT P6SM OVC060
  FM112000 19010KT 5SM -SN OVC040
  FM120100 20009KT P6SM VCSH SCT045 OVC080
  FM120500 18009KT 6SM -RA OVC035
  FM120700 18009KT 5SM -RA OVC015
  FM120900 20009KT 2SM RA BR OVC008
  FM121200 21014G28KT 2SM RA BR OVC008
  FM121500 24017G32KT 2SM RA BR OVC015


KLAS 111122Z 1112/1212 26006KT P6SM FEW150 BKN200
  FM120300 21006KT P6SM FEW070 BKN200


KLAX 111132Z 1112/1218 26006KT P6SM SCT006 OVC012
  TEMPO 1112/1115 2SM -RA BR OVC004
  FM111500 25005KT 4SM BR SCT006 OVC012
  FM112000 25008KT 6SM BR SCT012 BKN025
  FM120400 25005KT 4SM BR SCT006 OVC012
  FM121000 VRB03KT 4SM BR OVC015


KLGA 111148Z 1112/1212 30006KT P6SM SCT120 BKN150
  FM111400 26007KT P6SM OVC100
  FM111600 21008KT P6SM OVC060
  FM112000 20009KT 5SM -SN OVC040
  FM120100 19008KT P6SM VCSH SCT045 OVC080
  FM120500 18006KT 5SM -SNRA OVC035
  FM120700 18006KT 5SM -RA OVC015
  FM120900 19009KT 2SM RA BR OVC008


KMCO 111129Z 1112/1212 03005KT P6SM FEW040 SCT080
  FM111400 05010KT P6SM SCT035
  FM111500 09011G16KT P6SM BKN040
  FM112200 10010KT P6SM SCT040 BKN100
  FM120000 12006KT P6SM SCT030 SCT070
  TEMPO 1206/1210 3SM BR FEW020 SCT100


KMDW 111121Z 1112/1212 16012G18KT 5SM -SN BR SCT012 BKN030 OVC050
  TEMPO 1112/1116 2SM -SN BR SCT007 OVC012
  FM111600 18012G18KT 1 1/2SM -SN BR OVC007
  FM111900 19012KT 3/4SM -SN BR OVC005
  TEMPO 1119/1122 1/2SM SN VV003
  FM120000 21008KT 2SM -SN OVC007
  FM120200 26010KT 5SM -SN BKN008 OVC015
  FM120600 28012KT P6SM BKN012 BKN025


KMEM 111130Z 1112/1212 16010G15KT P6SM OVC050
  FM111700 18012G20KT P6SM VCSH OVC040
  FM120300 21012G20KT 5SM -SHRA VCTS OVC020CB
  TEMPO 1205/1209 2SM SHRA BR OVC007
  FM120900 33010KT 5SM -RA BR OVC012


KMIA 111120Z 1112/1212 06011KT P6SM VCSH FEW020 SCT035 BKN040
  FM111400 10017G27KT P6SM VCSH SCT020 BKN040 OVC060
  FM120200 11007KT P6SM SCT035 BKN050 BKN080


KMSP 111144Z 1112/1218 08010KT 3/4SM -SN SCT008 OVC012
  FM111400 07009KT 2SM -SN SCT007 OVC015
  FM111700 36007KT 4SM -SN BKN025 OVC040
  FM111900 04005KT P6SM OVC020
  FM112200 33007KT P6SM OVC020
  FM120800 28010KT P6SM SCT020


KORD 111121Z 1112/1218 16012G18KT 5SM -SN BR SCT012 BKN030 OVC050
  TEMPO 1112/1116 2SM -SN BR SCT007 OVC012
  FM111600 18012G18KT 1 1/2SM -SN BR OVC007
  FM111900 19012KT 3/4SM -SN BR OVC005
  TEMPO 1119/1122 1/2SM SN VV003
  FM120000 21008KT 2SM -SN OVC007
  FM120200 26010KT 5SM -SN BKN008 OVC015
  FM120600 28012KT P6SM BKN012 BKN025


KPDX 111137Z 1112/1212 19010KT P6SM -SHRA SCT015 SCT025 BKN040
  TEMPO 1112/1116 5SM SHRA BR SCT012 BKN020 BKN035
  FM112100 21007KT P6SM -SHRA SCT025 BKN040
  FM120500 21005KT P6SM -SHRA SCT020 BKN035
  FM120900 VRB03KT P6SM SCT015 BKN035


KPHL 111130Z 1112/1218 VRB04KT P6SM OVC100
  FM111500 19007KT P6SM OVC060
  FM112300 16006KT P6SM SCT040 OVC060
  FM120500 16005KT 5SM -RASNPL BR SCT007 OVC015
  FM120600 17005KT 2SM -RA BR OVC007
  FM120900 21007KT 2SM RA BR OVC005
  FM121600 24012G20KT P6SM SCT008 OVC012


KPHX 111120Z 1112/1212 10004KT P6SM FEW150 BKN250
  FM112100 25004KT P6SM SCT100 BKN250
  FM120300 10004KT P6SM SCT100 BKN250


KPIT 111140Z 1112/1218 17003KT 2SM -SN OVC025
  FM111500 13006KT P6SM -SN OVC050
  FM120200 14007KT 3SM -RASN OVC025
  FM120700 19008KT 5SM -RA OVC015
  FM121500 25008KT P6SM OVC010


KSAN 111135Z 1112/1218 VRB05KT 6SM -DZ BR BKN012
  FM111800 VRB06KT P6SM BKN018 BKN150
  FM112100 28009KT P6SM BKN022
  FM120200 VRB04KT 6SM BR OVC012
  FM121700 VRB06KT P6SM BKN022


KSEA 111145Z 1112/1218 19015KT P6SM -SHRA FEW018 BKN035 OVC060
  TEMPO 1112/1116 19015G25KT FEW018 BKN030 OVC050
  FM111600 19013KT P6SM -SHRA FEW018 BKN030 OVC050
  FM111800 19010KT P6SM -SHRA BKN025 OVC040
  FM120000 19008KT P6SM BKN035 BKN060
  PROB30 1200/1206 -SHRA
  FM121200 19008KT P6SM SCT020 OVC035
  PROB30 1214/1218 -SHRA


KSFO 111126Z 1112/1218 28005KT P6SM BKN200
  FM111900 32010KT P6SM BKN200
  FM120400 29006KT P6SM OVC120
  FM121500 30006KT P6SM FEW020 OVC080


KSLC 111123Z 1112/1218 11007KT P6SM VCSH SCT030 BKN050
  FM111215 33012G17KT P6SM VCSH SCT020 BKN040
  FM111400 33004KT P6SM VCSH SCT040 BKN060
  FM111600 17009KT P6SM SCT060


KSTL 111129Z 1112/1218 17010KT P6SM OVC030
  FM111800 18011G18KT P6SM -RA OVC030
  FM120000 20008KT 5SM -RA OVC020
  FM120200 25006KT P6SM OVC008
  FM120500 30008KT P6SM OVC012


KTPA 111120Z 1112/1212 06006KT P6SM SCT060
  FM111600 09010KT P6SM SCT025 BKN050
  FM120200 08005KT P6SM BKN025
  FM120900 10003KT 5SM BR SCT003 BKN025